sensor_id;sensor_type;location;lat;lon;timestamp;temperature;humidity
10278;DHT22;5184;51.376;7.148;2023-02-18T00:00:18;10.50;99.90
10278;DHT22;5184;51.376;7.148;2023-02-18T00:02:44;10.50;99.90
10278;DHT22;5184;51.376;7.148;2023-02-18T00:05:11;10.50;99.90
10278;DHT22;5184;51.376;7.148;2023-02-18T00:07:37;10.50;99.90
10278;DHT22;5184;51.376;7.148;2023-02-18T00:10:05;10.50;99.90
10278;DHT22;5184;51.376;7.148;2023-02-18T00:12:31;10.50;99.90
10278;DHT22;5184;51.376;7.148;2023-02-18T00:14:58;10.40;99.90
10278;DHT22;5184;51.376;7.148;2023-02-18T00:17:25;10.40;99.90
10278;DHT22;5184;51.376;7.148;2023-02-18T00:19:51;10.40;99.90
10278;DHT22;5184;51.376;7.148;2023-02-18T00:22:19;10.30;99.90
10278;DHT22;5184;51.376;7.148;2023-02-18T00:24:46;10.40;99.90
10278;DHT22;5184;51.376;7.148;2023-02-18T00:27:13;10.30;99.90
10278;DHT22;5184;51.376;7.148;2023-02-18T00:29:39;10.30;99.90
10278;DHT22;5184;51.376;7.148;2023-02-18T00:32:07;10.30;99.90
10278;DHT22;5184;51.376;7.148;2023-02-18T00:34:34;10.30;99.90
10278;DHT22;5184;51.376;7.148;2023-02-18T00:37:01;10.30;99.90
10278;DHT22;5184;51.376;7.148;2023-02-18T00:39:28;10.30;99.90
10278;DHT22;5184;51.376;7.148;2023-02-18T00:41:54;10.30;99.90
10278;DHT22;5184;51.376;7.148;2023-02-18T00:44:21;10.30;99.90
10278;DHT22;5184;51.376;7.148;2023-02-18T00:46:48;10.20;99.90
10278;DHT22;5184;51.376;7.148;2023-02-18T00:49:16;10.30;99.90
10278;DHT22;5184;51.376;7.148;2023-02-18T00:51:42;10.30;99.90
10278;DHT22;5184;51.376;7.148;2023-02-18T00:54:09;10.20;99.90
10278;DHT22;5184;51.376;7.148;2023-02-18T00:56:35;10.20;99.90
10278;DHT22;5184;51.376;7.148;2023-02-18T00:59:03;10.20;99.90
10278;DHT22;5184;51.376;7.148;2023-02-18T01:01:30;10.20;99.90
10278;DHT22;5184;51.376;7.148;2023-02-18T01:03:57;10.10;99.90
10278;DHT22;5184;51.376;7.148;2023-02-18T01:06:23;10.10;99.90
10278;DHT22;5184;51.376;7.148;2023-02-18T01:08:51;10.10;99.90
10278;DHT22;5184;51.376;7.148;2023-02-18T01:11:18;10.10;99.90
10278;DHT22;5184;51.376;7.148;2023-02-18T01:13:45;10.00;99.90
10278;DHT22;5184;51.376;7.148;2023-02-18T01:16:12;10.00;99.90
10278;DHT22;5184;51.376;7.148;2023-02-18T01:18:39;10.10;99.90
10278;DHT22;5184;51.376;7.148;2023-02-18T01:21:06;10.10;99.90
10278;DHT22;5184;51.376;7.148;2023-02-18T01:23:33;10.10;99.90
10278;DHT22;5184;51.376;7.148;2023-02-18T01:25:59;10.10;99.90
10278;DHT22;5184;51.376;7.148;2023-02-18T01:28:26;10.10;99.90
10278;DHT22;5184;51.376;7.148;2023-02-18T01:30:53;10.10;99.90
10278;DHT22;5184;51.376;7.148;2023-02-18T01:33:19;10.20;99.90
10278;DHT22;5184;51.376;7.148;2023-02-18T01:35:46;10.20;99.90
10278;DHT22;5184;51.376;7.148;2023-02-18T01:38:13;10.10;99.90
10278;DHT22;5184;51.376;7.148;2023-02-18T01:40:46;10.20;99.90
10278;DHT22;5184;51.376;7.148;2023-02-18T01:43:12;10.20;99.90
10278;DHT22;5184;51.376;7.148;2023-02-18T01:45:56;10.20;99.90
10278;DHT22;5184;51.376;7.148;2023-02-18T01:48:24;10.20;99.90
10278;DHT22;5184;51.376;7.148;2023-02-18T01:50:50;10.20;99.90
10278;DHT22;5184;51.376;7.148;2023-02-18T01:53:17;10.20;99.90
10278;DHT22;5184;51.376;7.148;2023-02-18T01:55:42;10.20;99.90
10278;DHT22;5184;51.376;7.148;2023-02-18T01:58:10;10.20;99.90
10278;DHT22;5184;51.376;7.148;2023-02-18T02:00:36;10.20;99.90
10278;DHT22;5184;51.376;7.148;2023-02-18T02:03:03;10.20;99.90
10278;DHT22;5184;51.376;7.148;2023-02-18T02:05:30;10.20;99.90
10278;DHT22;5184;51.376;7.148;2023-02-18T02:07:57;10.20;99.90
10278;DHT22;5184;51.376;7.148;2023-02-18T02:10:23;10.20;99.90
10278;DHT22;5184;51.376;7.148;2023-02-18T02:12:57;10.20;99.90
10278;DHT22;5184;51.376;7.148;2023-02-18T02:15:46;10.20;99.90
10278;DHT22;5184;51.376;7.148;2023-02-18T02:18:25;10.20;99.90
10278;DHT22;5184;51.376;7.148;2023-02-18T02:21:18;10.30;99.90
10278;DHT22;5184;51.376;7.148;2023-02-18T02:26:37;9.90;99.90
10278;DHT22;5184;51.376;7.148;2023-02-18T02:29:16;10.20;99.90
10278;DHT22;5184;51.376;7.148;2023-02-18T02:37:13;10.30;99.90
10278;DHT22;5184;51.376;7.148;2023-02-18T02:39:42;10.20;99.90
10278;DHT22;5184;51.376;7.148;2023-02-18T02:42:14;10.30;99.90
10278;DHT22;5184;51.376;7.148;2023-02-18T02:44:40;10.30;99.90
10278;DHT22;5184;51.376;7.148;2023-02-18T02:47:08;10.00;99.90
10278;DHT22;5184;51.376;7.148;2023-02-18T02:49:44;10.20;99.90
10278;DHT22;5184;51.376;7.148;2023-02-18T02:52:11;10.20;99.90
10278;DHT22;5184;51.376;7.148;2023-02-18T02:54:36;10.30;99.90
10278;DHT22;5184;51.376;7.148;2023-02-18T02:57:07;10.20;99.90
10278;DHT22;5184;51.376;7.148;2023-02-18T02:59:31;10.20;99.90
10278;DHT22;5184;51.376;7.148;2023-02-18T03:04:41;10.20;99.90
10278;DHT22;5184;51.376;7.148;2023-02-18T03:07:10;10.20;99.90
10278;DHT22;5184;51.376;7.148;2023-02-18T03:09:46;10.10;99.90
10278;DHT22;5184;51.376;7.148;2023-02-18T03:15:22;10.10;99.90
10278;DHT22;5184;51.376;7.148;2023-02-18T03:17:52;10.10;99.90
10278;DHT22;5184;51.376;7.148;2023-02-18T03:20:22;10.10;99.90
10278;DHT22;5184;51.376;7.148;2023-02-18T03:22:45;10.00;99.90
10278;DHT22;5184;51.376;7.148;2023-02-18T03:25:11;10.00;99.90
10278;DHT22;5184;51.376;7.148;2023-02-18T03:27:45;9.90;99.90
10278;DHT22;5184;51.376;7.148;2023-02-18T03:30:17;9.90;99.90
10278;DHT22;5184;51.376;7.148;2023-02-18T03:32:42;9.90;99.90
10278;DHT22;5184;51.376;7.148;2023-02-18T03:35:10;9.90;99.90
10278;DHT22;5184;51.376;7.148;2023-02-18T03:37:36;9.90;99.90
10278;DHT22;5184;51.376;7.148;2023-02-18T03:40:03;9.80;99.90
10278;DHT22;5184;51.376;7.148;2023-02-18T03:42:30;9.80;99.90
10278;DHT22;5184;51.376;7.148;2023-02-18T03:44:57;9.80;99.90
10278;DHT22;5184;51.376;7.148;2023-02-18T03:47:23;9.80;99.90
10278;DHT22;5184;51.376;7.148;2023-02-18T03:49:50;9.90;99.90
10278;DHT22;5184;51.376;7.148;2023-02-18T03:52:17;9.80;99.90
10278;DHT22;5184;51.376;7.148;2023-02-18T03:54:44;9.90;99.90
10278;DHT22;5184;51.376;7.148;2023-02-18T03:57:11;9.90;99.90
10278;DHT22;5184;51.376;7.148;2023-02-18T03:59:38;9.80;99.90
10278;DHT22;5184;51.376;7.148;2023-02-18T04:02:05;9.80;99.90
10278;DHT22;5184;51.376;7.148;2023-02-18T04:04:32;9.80;99.90
10278;DHT22;5184;51.376;7.148;2023-02-18T04:06:59;9.90;99.90
10278;DHT22;5184;51.376;7.148;2023-02-18T04:09:26;9.80;99.90
10278;DHT22;5184;51.376;7.148;2023-02-18T04:11:53;9.90;99.90
10278;DHT22;5184;51.376;7.148;2023-02-18T04:14:19;9.90;99.90
10278;DHT22;5184;51.376;7.148;2023-02-18T04:16:46;9.80;99.90
10278;DHT22;5184;51.376;7.148;2023-02-18T04:19:12;9.90;99.90
10278;DHT22;5184;51.376;7.148;2023-02-18T04:21:40;9.80;99.90
10278;DHT22;5184;51.376;7.148;2023-02-18T04:24:07;9.80;99.90
10278;DHT22;5184;51.376;7.148;2023-02-18T04:26:34;9.80;99.90
10278;DHT22;5184;51.376;7.148;2023-02-18T04:29:01;9.80;99.90
10278;DHT22;5184;51.376;7.148;2023-02-18T04:31:28;9.80;99.90
10278;DHT22;5184;51.376;7.148;2023-02-18T04:33:54;9.80;99.90
10278;DHT22;5184;51.376;7.148;2023-02-18T04:36:21;9.80;99.90
10278;DHT22;5184;51.376;7.148;2023-02-18T04:38:47;9.80;99.90
10278;DHT22;5184;51.376;7.148;2023-02-18T04:41:15;9.80;99.90
10278;DHT22;5184;51.376;7.148;2023-02-18T04:43:42;9.80;99.90
10278;DHT22;5184;51.376;7.148;2023-02-18T04:46:09;9.80;99.90
10278;DHT22;5184;51.376;7.148;2023-02-18T04:48:37;9.80;99.90
10278;DHT22;5184;51.376;7.148;2023-02-18T04:51:04;9.80;99.90
10278;DHT22;5184;51.376;7.148;2023-02-18T04:53:31;9.70;99.90
10278;DHT22;5184;51.376;7.148;2023-02-18T04:55:57;9.70;99.90
10278;DHT22;5184;51.376;7.148;2023-02-18T04:58:25;9.70;99.90
10278;DHT22;5184;51.376;7.148;2023-02-18T05:00:52;9.70;99.90
10278;DHT22;5184;51.376;7.148;2023-02-18T05:03:19;9.70;99.90
10278;DHT22;5184;51.376;7.148;2023-02-18T05:05:47;9.70;99.90
10278;DHT22;5184;51.376;7.148;2023-02-18T05:08:14;9.70;99.90
10278;DHT22;5184;51.376;7.148;2023-02-18T05:10:41;9.70;99.90
10278;DHT22;5184;51.376;7.148;2023-02-18T05:13:08;9.60;99.90
10278;DHT22;5184;51.376;7.148;2023-02-18T05:15:35;9.70;99.90
10278;DHT22;5184;51.376;7.148;2023-02-18T05:18:02;9.60;99.90
10278;DHT22;5184;51.376;7.148;2023-02-18T05:20:29;9.60;99.90
10278;DHT22;5184;51.376;7.148;2023-02-18T05:22:56;9.60;99.90
10278;DHT22;5184;51.376;7.148;2023-02-18T05:25:23;9.60;99.90
10278;DHT22;5184;51.376;7.148;2023-02-18T05:27:50;9.60;99.90
10278;DHT22;5184;51.376;7.148;2023-02-18T05:30:16;9.60;99.90
10278;DHT22;5184;51.376;7.148;2023-02-18T05:32:43;9.60;99.90
10278;DHT22;5184;51.376;7.148;2023-02-18T05:35:09;9.60;99.90
10278;DHT22;5184;51.376;7.148;2023-02-18T05:37:36;9.60;99.90
10278;DHT22;5184;51.376;7.148;2023-02-18T05:40:04;9.60;99.90
10278;DHT22;5184;51.376;7.148;2023-02-18T05:42:31;9.60;99.90
10278;DHT22;5184;51.376;7.148;2023-02-18T05:44:58;9.60;99.90
10278;DHT22;5184;51.376;7.148;2023-02-18T05:47:25;9.60;99.90
10278;DHT22;5184;51.376;7.148;2023-02-18T05:49:53;9.60;99.90
10278;DHT22;5184;51.376;7.148;2023-02-18T05:52:20;9.60;99.90
10278;DHT22;5184;51.376;7.148;2023-02-18T05:54:47;9.50;99.90
10278;DHT22;5184;51.376;7.148;2023-02-18T05:57:15;9.50;99.90
10278;DHT22;5184;51.376;7.148;2023-02-18T05:59:41;9.50;99.90
10278;DHT22;5184;51.376;7.148;2023-02-18T06:02:08;9.50;99.90
10278;DHT22;5184;51.376;7.148;2023-02-18T06:04:34;9.60;99.90
10278;DHT22;5184;51.376;7.148;2023-02-18T06:07:01;9.50;99.90
10278;DHT22;5184;51.376;7.148;2023-02-18T06:09:28;9.50;99.90
10278;DHT22;5184;51.376;7.148;2023-02-18T06:11:55;9.50;99.90
10278;DHT22;5184;51.376;7.148;2023-02-18T06:14:22;9.60;99.90
10278;DHT22;5184;51.376;7.148;2023-02-18T06:16:48;9.50;99.90
10278;DHT22;5184;51.376;7.148;2023-02-18T06:19:15;9.50;99.90
10278;DHT22;5184;51.376;7.148;2023-02-18T06:21:42;9.50;99.90
10278;DHT22;5184;51.376;7.148;2023-02-18T06:24:09;9.50;99.90
10278;DHT22;5184;51.376;7.148;2023-02-18T06:26:36;9.50;99.90
10278;DHT22;5184;51.376;7.148;2023-02-18T06:29:04;9.50;99.90
10278;DHT22;5184;51.376;7.148;2023-02-18T06:31:31;9.50;99.90
10278;DHT22;5184;51.376;7.148;2023-02-18T06:33:58;9.50;99.90
10278;DHT22;5184;51.376;7.148;2023-02-18T06:36:25;9.50;99.90
10278;DHT22;5184;51.376;7.148;2023-02-18T06:38:52;9.50;99.90
10278;DHT22;5184;51.376;7.148;2023-02-18T06:41:18;9.50;99.90
10278;DHT22;5184;51.376;7.148;2023-02-18T06:43:45;9.50;99.90
10278;DHT22;5184;51.376;7.148;2023-02-18T06:46:12;9.50;99.90
10278;DHT22;5184;51.376;7.148;2023-02-18T06:48:40;9.50;99.90
10278;DHT22;5184;51.376;7.148;2023-02-18T06:51:07;9.50;99.90
10278;DHT22;5184;51.376;7.148;2023-02-18T06:53:34;9.50;99.90
10278;DHT22;5184;51.376;7.148;2023-02-18T06:56:00;9.50;99.90
10278;DHT22;5184;51.376;7.148;2023-02-18T06:58:27;9.50;99.90
10278;DHT22;5184;51.376;7.148;2023-02-18T07:00:53;9.50;99.90
10278;DHT22;5184;51.376;7.148;2023-02-18T07:03:20;9.50;99.90
10278;DHT22;5184;51.376;7.148;2023-02-18T07:05:47;9.50;99.90
10278;DHT22;5184;51.376;7.148;2023-02-18T07:08:16;9.50;99.90
10278;DHT22;5184;51.376;7.148;2023-02-18T07:10:42;9.50;99.90
10278;DHT22;5184;51.376;7.148;2023-02-18T07:13:09;9.50;99.90
10278;DHT22;5184;51.376;7.148;2023-02-18T07:15:37;9.50;99.90
10278;DHT22;5184;51.376;7.148;2023-02-18T07:18:03;9.50;99.90
10278;DHT22;5184;51.376;7.148;2023-02-18T07:20:30;9.50;99.90
10278;DHT22;5184;51.376;7.148;2023-02-18T07:22:57;9.50;99.90
10278;DHT22;5184;51.376;7.148;2023-02-18T07:25:24;9.50;99.90
10278;DHT22;5184;51.376;7.148;2023-02-18T07:27:51;9.40;99.90
10278;DHT22;5184;51.376;7.148;2023-02-18T07:30:19;9.40;99.90
10278;DHT22;5184;51.376;7.148;2023-02-18T07:32:45;9.40;99.90
10278;DHT22;5184;51.376;7.148;2023-02-18T07:35:13;9.40;99.90
10278;DHT22;5184;51.376;7.148;2023-02-18T07:37:39;9.40;99.90
10278;DHT22;5184;51.376;7.148;2023-02-18T07:40:06;9.40;99.90
10278;DHT22;5184;51.376;7.148;2023-02-18T07:42:34;9.40;99.90
10278;DHT22;5184;51.376;7.148;2023-02-18T07:45:01;9.40;99.90
10278;DHT22;5184;51.376;7.148;2023-02-18T07:47:27;9.40;99.90
10278;DHT22;5184;51.376;7.148;2023-02-18T07:49:54;9.40;99.90
10278;DHT22;5184;51.376;7.148;2023-02-18T07:52:20;9.50;99.90
10278;DHT22;5184;51.376;7.148;2023-02-18T07:54:47;9.50;99.90
10278;DHT22;5184;51.376;7.148;2023-02-18T07:57:14;9.50;99.90
10278;DHT22;5184;51.376;7.148;2023-02-18T07:59:41;9.60;99.90
10278;DHT22;5184;51.376;7.148;2023-02-18T08:02:20;9.50;99.90
10278;DHT22;5184;51.376;7.148;2023-02-18T08:04:46;9.50;99.90
10278;DHT22;5184;51.376;7.148;2023-02-18T08:07:13;9.60;99.90
10278;DHT22;5184;51.376;7.148;2023-02-18T08:09:39;9.50;99.90
10278;DHT22;5184;51.376;7.148;2023-02-18T08:12:06;9.50;99.90
10278;DHT22;5184;51.376;7.148;2023-02-18T08:14:32;9.50;99.90
10278;DHT22;5184;51.376;7.148;2023-02-18T08:16:59;9.50;99.90
10278;DHT22;5184;51.376;7.148;2023-02-18T08:19:26;9.40;99.90
10278;DHT22;5184;51.376;7.148;2023-02-18T08:21:53;9.40;99.90
10278;DHT22;5184;51.376;7.148;2023-02-18T08:24:19;9.30;99.90
10278;DHT22;5184;51.376;7.148;2023-02-18T08:26:46;9.30;99.90
10278;DHT22;5184;51.376;7.148;2023-02-18T08:29:12;9.30;99.90
10278;DHT22;5184;51.376;7.148;2023-02-18T08:31:39;9.30;99.90
10278;DHT22;5184;51.376;7.148;2023-02-18T08:34:06;9.30;99.90
10278;DHT22;5184;51.376;7.148;2023-02-18T08:36:32;9.30;99.90
10278;DHT22;5184;51.376;7.148;2023-02-18T08:38:59;9.20;99.90
10278;DHT22;5184;51.376;7.148;2023-02-18T08:41:27;9.20;99.90
10278;DHT22;5184;51.376;7.148;2023-02-18T08:43:54;9.10;99.90
10278;DHT22;5184;51.376;7.148;2023-02-18T08:46:22;9.10;99.90
10278;DHT22;5184;51.376;7.148;2023-02-18T08:48:49;9.10;99.90
10278;DHT22;5184;51.376;7.148;2023-02-18T08:51:18;9.00;99.90
10278;DHT22;5184;51.376;7.148;2023-02-18T08:53:44;9.00;99.90
10278;DHT22;5184;51.376;7.148;2023-02-18T08:56:10;9.00;99.90
10278;DHT22;5184;51.376;7.148;2023-02-18T08:58:38;9.00;99.90
10278;DHT22;5184;51.376;7.148;2023-02-18T09:01:05;8.90;99.90
10278;DHT22;5184;51.376;7.148;2023-02-18T09:03:32;9.00;99.90
10278;DHT22;5184;51.376;7.148;2023-02-18T09:05:59;9.00;99.90
10278;DHT22;5184;51.376;7.148;2023-02-18T09:08:27;9.00;99.90
10278;DHT22;5184;51.376;7.148;2023-02-18T09:10:55;9.00;99.90
10278;DHT22;5184;51.376;7.148;2023-02-18T09:13:21;9.00;99.90
10278;DHT22;5184;51.376;7.148;2023-02-18T09:15:56;9.00;99.90
10278;DHT22;5184;51.376;7.148;2023-02-18T09:18:22;8.50;99.90
10278;DHT22;5184;51.376;7.148;2023-02-18T09:20:49;8.90;99.90
10278;DHT22;5184;51.376;7.148;2023-02-18T09:23:15;9.00;99.90
10278;DHT22;5184;51.376;7.148;2023-02-18T09:25:42;9.00;99.90
10278;DHT22;5184;51.376;7.148;2023-02-18T09:28:10;9.00;99.90
10278;DHT22;5184;51.376;7.148;2023-02-18T09:30:38;8.90;99.90
10278;DHT22;5184;51.376;7.148;2023-02-18T09:33:04;9.00;99.90
10278;DHT22;5184;51.376;7.148;2023-02-18T09:35:30;9.00;99.90
10278;DHT22;5184;51.376;7.148;2023-02-18T09:37:57;9.00;99.90
10278;DHT22;5184;51.376;7.148;2023-02-18T09:40:26;9.00;99.90
10278;DHT22;5184;51.376;7.148;2023-02-18T09:42:51;9.00;99.90
10278;DHT22;5184;51.376;7.148;2023-02-18T09:45:18;9.00;99.90
10278;DHT22;5184;51.376;7.148;2023-02-18T09:47:46;9.00;99.90
10278;DHT22;5184;51.376;7.148;2023-02-18T09:50:17;9.00;99.90
10278;DHT22;5184;51.376;7.148;2023-02-18T09:52:40;9.00;99.90
10278;DHT22;5184;51.376;7.148;2023-02-18T09:55:29;9.00;99.90
10278;DHT22;5184;51.376;7.148;2023-02-18T09:58:04;9.00;99.90
10278;DHT22;5184;51.376;7.148;2023-02-18T10:00:35;9.00;99.90
10278;DHT22;5184;51.376;7.148;2023-02-18T10:03:05;8.90;99.90
10278;DHT22;5184;51.376;7.148;2023-02-18T10:05:30;8.90;99.90
10278;DHT22;5184;51.376;7.148;2023-02-18T10:07:59;8.90;99.90
10278;DHT22;5184;51.376;7.148;2023-02-18T10:10:41;9.00;99.90
10278;DHT22;5184;51.376;7.148;2023-02-18T10:13:13;9.00;99.90
10278;DHT22;5184;51.376;7.148;2023-02-18T10:15:38;9.00;99.90
10278;DHT22;5184;51.376;7.148;2023-02-18T10:18:04;9.00;99.90
10278;DHT22;5184;51.376;7.148;2023-02-18T10:20:31;8.90;99.90
10278;DHT22;5184;51.376;7.148;2023-02-18T10:22:58;9.00;99.90
10278;DHT22;5184;51.376;7.148;2023-02-18T10:25:25;9.00;99.90
10278;DHT22;5184;51.376;7.148;2023-02-18T10:27:52;9.00;99.90
10278;DHT22;5184;51.376;7.148;2023-02-18T10:30:22;8.90;99.90
10278;DHT22;5184;51.376;7.148;2023-02-18T10:32:48;8.90;99.90
10278;DHT22;5184;51.376;7.148;2023-02-18T10:35:29;8.90;99.90
10278;DHT22;5184;51.376;7.148;2023-02-18T10:38:05;8.90;99.90
10278;DHT22;5184;51.376;7.148;2023-02-18T10:43:25;8.80;99.90
10278;DHT22;5184;51.376;7.148;2023-02-18T10:45:53;8.90;99.90
10278;DHT22;5184;51.376;7.148;2023-02-18T10:48:22;8.90;99.90
10278;DHT22;5184;51.376;7.148;2023-02-18T10:50:44;8.90;99.90
10278;DHT22;5184;51.376;7.148;2023-02-18T10:53:16;9.00;99.90
10278;DHT22;5184;51.376;7.148;2023-02-18T10:55:44;8.80;99.90
10278;DHT22;5184;51.376;7.148;2023-02-18T10:58:31;8.80;99.90
10278;DHT22;5184;51.376;7.148;2023-02-18T11:00:57;8.90;99.90
10278;DHT22;5184;51.376;7.148;2023-02-18T11:03:26;8.80;99.90
10278;DHT22;5184;51.376;7.148;2023-02-18T11:05:54;8.80;99.90
10278;DHT22;5184;51.376;7.148;2023-02-18T11:08:19;8.80;99.90
10278;DHT22;5184;51.376;7.148;2023-02-18T11:10:45;8.80;99.90
10278;DHT22;5184;51.376;7.148;2023-02-18T11:13:12;8.80;99.90
10278;DHT22;5184;51.376;7.148;2023-02-18T11:15:52;8.80;99.90
10278;DHT22;5184;51.376;7.148;2023-02-18T11:18:13;8.80;99.90
10278;DHT22;5184;51.376;7.148;2023-02-18T11:20:38;8.80;99.90
10278;DHT22;5184;51.376;7.148;2023-02-18T11:23:21;8.90;99.90
10278;DHT22;5184;51.376;7.148;2023-02-18T11:25:57;8.90;99.90
10278;DHT22;5184;51.376;7.148;2023-02-18T11:28:40;8.90;99.90
10278;DHT22;5184;51.376;7.148;2023-02-18T11:31:05;8.80;99.90
10278;DHT22;5184;51.376;7.148;2023-02-18T11:33:41;8.80;99.90
10278;DHT22;5184;51.376;7.148;2023-02-18T11:36:15;8.90;99.90
10278;DHT22;5184;51.376;7.148;2023-02-18T11:38:46;8.90;99.90
10278;DHT22;5184;51.376;7.148;2023-02-18T11:41:16;8.90;99.90
10278;DHT22;5184;51.376;7.148;2023-02-18T11:43:42;8.90;99.90
10278;DHT22;5184;51.376;7.148;2023-02-18T11:46:19;8.90;99.90
10278;DHT22;5184;51.376;7.148;2023-02-18T11:48:46;8.90;99.90
10278;DHT22;5184;51.376;7.148;2023-02-18T11:51:24;9.00;99.90
10278;DHT22;5184;51.376;7.148;2023-02-18T11:53:54;8.90;99.90
10278;DHT22;5184;51.376;7.148;2023-02-18T11:56:20;9.00;99.90
10278;DHT22;5184;51.376;7.148;2023-02-18T11:58:47;8.90;99.90
10278;DHT22;5184;51.376;7.148;2023-02-18T12:01:20;9.00;99.90
10278;DHT22;5184;51.376;7.148;2023-02-18T12:03:55;9.00;99.90
10278;DHT22;5184;51.376;7.148;2023-02-18T12:06:22;9.00;99.90
10278;DHT22;5184;51.376;7.148;2023-02-18T12:08:48;8.90;99.90
10278;DHT22;5184;51.376;7.148;2023-02-18T12:11:26;9.00;99.90
10278;DHT22;5184;51.376;7.148;2023-02-18T12:13:44;9.00;99.90
10278;DHT22;5184;51.376;7.148;2023-02-18T12:16:22;9.10;99.90
10278;DHT22;5184;51.376;7.148;2023-02-18T12:18:53;9.10;99.90
10278;DHT22;5184;51.376;7.148;2023-02-18T12:24:01;9.00;99.90
10278;DHT22;5184;51.376;7.148;2023-02-18T12:26:28;9.10;99.90
10278;DHT22;5184;51.376;7.148;2023-02-18T12:29:15;9.10;99.90
10278;DHT22;5184;51.376;7.148;2023-02-18T12:37:13;9.10;99.90
10278;DHT22;5184;51.376;7.148;2023-02-18T12:39:53;9.10;99.90
10278;DHT22;5184;51.376;7.148;2023-02-18T12:42:21;9.00;99.90
10278;DHT22;5184;51.376;7.148;2023-02-18T12:47:54;9.10;99.90
10278;DHT22;5184;51.376;7.148;2023-02-18T12:50:22;9.10;99.90
10278;DHT22;5184;51.376;7.148;2023-02-18T12:52:49;9.10;99.90
10278;DHT22;5184;51.376;7.148;2023-02-18T12:55:40;9.10;99.90
10278;DHT22;5184;51.376;7.148;2023-02-18T13:00:52;9.10;99.90
10278;DHT22;5184;51.376;7.148;2023-02-18T13:06:11;9.10;99.90
10278;DHT22;5184;51.376;7.148;2023-02-18T13:09:46;9.20;99.90
10278;DHT22;5184;51.376;7.148;2023-02-18T13:11:28;9.10;99.90
10278;DHT22;5184;51.376;7.148;2023-02-18T13:13:59;9.10;99.90
10278;DHT22;5184;51.376;7.148;2023-02-18T13:16:23;9.10;99.90
10278;DHT22;5184;51.376;7.148;2023-02-18T13:19:02;9.10;99.90
10278;DHT22;5184;51.376;7.148;2023-02-18T13:21:31;9.10;99.90
10278;DHT22;5184;51.376;7.148;2023-02-18T13:24:01;9.20;99.90
10278;DHT22;5184;51.376;7.148;2023-02-18T13:26:28;9.20;99.90
10278;DHT22;5184;51.376;7.148;2023-02-18T13:31:43;9.30;99.90
10278;DHT22;5184;51.376;7.148;2023-02-18T13:34:11;9.30;99.90
10278;DHT22;5184;51.376;7.148;2023-02-18T13:36:54;9.30;99.90
10278;DHT22;5184;51.376;7.148;2023-02-18T13:39:18;9.30;99.90
10278;DHT22;5184;51.376;7.148;2023-02-18T13:41:46;9.30;99.90
10278;DHT22;5184;51.376;7.148;2023-02-18T13:44:38;9.30;99.90
10278;DHT22;5184;51.376;7.148;2023-02-18T13:46:57;9.30;99.90
10278;DHT22;5184;51.376;7.148;2023-02-18T13:49:30;9.30;99.90
10278;DHT22;5184;51.376;7.148;2023-02-18T13:51:53;9.30;99.90
10278;DHT22;5184;51.376;7.148;2023-02-18T13:54:24;9.30;99.90
10278;DHT22;5184;51.376;7.148;2023-02-18T13:56:53;9.30;99.90
10278;DHT22;5184;51.376;7.148;2023-02-18T13:59:25;9.30;99.90
10278;DHT22;5184;51.376;7.148;2023-02-18T14:01:50;9.30;99.90
10278;DHT22;5184;51.376;7.148;2023-02-18T14:09:46;9.30;99.90
10278;DHT22;5184;51.376;7.148;2023-02-18T14:12:24;9.30;99.90
10278;DHT22;5184;51.376;7.148;2023-02-18T14:14:51;9.30;99.90
10278;DHT22;5184;51.376;7.148;2023-02-18T14:17:34;9.30;99.90
10278;DHT22;5184;51.376;7.148;2023-02-18T14:22:45;9.30;99.90
10278;DHT22;5184;51.376;7.148;2023-02-18T14:25:32;9.40;99.90
10278;DHT22;5184;51.376;7.148;2023-02-18T14:27:52;9.30;99.90
10278;DHT22;5184;51.376;7.148;2023-02-18T14:30:24;9.30;99.90
10278;DHT22;5184;51.376;7.148;2023-02-18T14:32:51;9.30;99.90
10278;DHT22;5184;51.376;7.148;2023-02-18T14:35:25;9.40;99.90
10278;DHT22;5184;51.376;7.148;2023-02-18T14:37:59;9.40;99.90
10278;DHT22;5184;51.376;7.148;2023-02-18T14:40:50;9.40;99.90
10278;DHT22;5184;51.376;7.148;2023-02-18T14:43:27;9.40;99.90
10278;DHT22;5184;51.376;7.148;2023-02-18T14:46:14;9.50;99.90
10278;DHT22;5184;51.376;7.148;2023-02-18T14:51:33;9.50;99.90
10278;DHT22;5184;51.376;7.148;2023-02-18T14:54:04;9.50;99.90
10278;DHT22;5184;51.376;7.148;2023-02-18T14:56:31;9.60;99.90
10278;DHT22;5184;51.376;7.148;2023-02-18T14:58:59;9.60;99.90
10278;DHT22;5184;51.376;7.148;2023-02-18T15:01:30;9.60;99.90
10278;DHT22;5184;51.376;7.148;2023-02-18T15:03:55;9.60;99.90
10278;DHT22;5184;51.376;7.148;2023-02-18T15:06:23;9.60;99.90
10278;DHT22;5184;51.376;7.148;2023-02-18T15:08:49;9.60;99.90
10278;DHT22;5184;51.376;7.148;2023-02-18T15:11:16;9.60;99.90
10278;DHT22;5184;51.376;7.148;2023-02-18T15:13:43;9.50;99.90
10278;DHT22;5184;51.376;7.148;2023-02-18T15:16:12;9.70;99.90
10278;DHT22;5184;51.376;7.148;2023-02-18T15:18:39;9.70;99.90
10278;DHT22;5184;51.376;7.148;2023-02-18T15:21:04;9.70;99.90
10278;DHT22;5184;51.376;7.148;2023-02-18T15:23:33;9.70;99.90
10278;DHT22;5184;51.376;7.148;2023-02-18T15:25:59;9.70;99.90
10278;DHT22;5184;51.376;7.148;2023-02-18T15:28:27;9.60;99.90
10278;DHT22;5184;51.376;7.148;2023-02-18T15:30:55;9.60;99.90
10278;DHT22;5184;51.376;7.148;2023-02-18T15:33:21;9.60;99.90
10278;DHT22;5184;51.376;7.148;2023-02-18T15:35:47;9.60;99.90
10278;DHT22;5184;51.376;7.148;2023-02-18T15:38:15;9.60;99.90
10278;DHT22;5184;51.376;7.148;2023-02-18T15:40:40;9.60;99.90
10278;DHT22;5184;51.376;7.148;2023-02-18T15:43:08;9.60;99.90
10278;DHT22;5184;51.376;7.148;2023-02-18T15:45:37;9.60;99.90
10278;DHT22;5184;51.376;7.148;2023-02-18T15:48:03;9.60;99.90
10278;DHT22;5184;51.376;7.148;2023-02-18T15:50:33;9.60;99.90
10278;DHT22;5184;51.376;7.148;2023-02-18T15:53:03;9.60;99.90
10278;DHT22;5184;51.376;7.148;2023-02-18T15:55:30;9.60;99.90
10278;DHT22;5184;51.376;7.148;2023-02-18T15:57:56;9.60;99.90
10278;DHT22;5184;51.376;7.148;2023-02-18T16:00:27;9.60;99.90
10278;DHT22;5184;51.376;7.148;2023-02-18T16:02:56;9.60;99.90
10278;DHT22;5184;51.376;7.148;2023-02-18T16:05:23;9.60;99.90
10278;DHT22;5184;51.376;7.148;2023-02-18T16:07:50;9.60;99.90
10278;DHT22;5184;51.376;7.148;2023-02-18T16:10:18;9.60;99.90
10278;DHT22;5184;51.376;7.148;2023-02-18T16:12:45;9.60;99.90
10278;DHT22;5184;51.376;7.148;2023-02-18T16:15:13;9.60;99.90
10278;DHT22;5184;51.376;7.148;2023-02-18T16:17:38;9.60;99.90
10278;DHT22;5184;51.376;7.148;2023-02-18T16:20:15;9.60;99.90
10278;DHT22;5184;51.376;7.148;2023-02-18T16:22:44;9.60;99.90
10278;DHT22;5184;51.376;7.148;2023-02-18T16:25:16;9.60;99.90
10278;DHT22;5184;51.376;7.148;2023-02-18T16:27:51;9.60;99.90
10278;DHT22;5184;51.376;7.148;2023-02-18T16:30:17;9.60;99.90
10278;DHT22;5184;51.376;7.148;2023-02-18T16:32:43;9.60;99.90
10278;DHT22;5184;51.376;7.148;2023-02-18T16:35:11;9.70;99.90
10278;DHT22;5184;51.376;7.148;2023-02-18T16:37:37;9.60;99.90
10278;DHT22;5184;51.376;7.148;2023-02-18T16:40:27;9.60;99.90
10278;DHT22;5184;51.376;7.148;2023-02-18T16:42:52;9.70;99.90
10278;DHT22;5184;51.376;7.148;2023-02-18T16:45:19;9.70;99.90
10278;DHT22;5184;51.376;7.148;2023-02-18T16:47:46;9.70;99.90
10278;DHT22;5184;51.376;7.148;2023-02-18T16:50:17;9.70;99.90
10278;DHT22;5184;51.376;7.148;2023-02-18T16:52:43;9.70;99.90
10278;DHT22;5184;51.376;7.148;2023-02-18T16:55:16;9.70;99.90